sensor_id;sensor_type;location;lat;lon;timestamp;P1;durP1;ratioP1;P2;durP2;ratioP2
14849;SDS011;7517;48.400;11.770;2024-01-06T00:00:54;16.73;;;3.23;;
14849;SDS011;7517;48.400;11.770;2024-01-06T00:03:22;3.63;;;2.37;;
14849;SDS011;7517;48.400;11.770;2024-01-06T00:05:49;7.00;;;2.17;;
14849;SDS011;7517;48.400;11.770;2024-01-06T00:08:16;33.70;;;3.10;;
14849;SDS011;7517;48.400;11.770;2024-01-06T00:10:43;8.27;;;3.03;;
14849;SDS011;7517;48.400;11.770;2024-01-06T00:13:10;2.10;;;1.90;;
14849;SDS011;7517;48.400;11.770;2024-01-06T00:15:38;32.90;;;3.23;;
14849;SDS011;7517;48.400;11.770;2024-01-06T00:18:06;16.47;;;2.90;;
14849;SDS011;7517;48.400;11.770;2024-01-06T00:20:34;8.70;;;2.30;;
14849;SDS011;7517;48.400;11.770;2024-01-06T00:23:01;14.20;;;2.70;;
14849;SDS011;7517;48.400;11.770;2024-01-06T00:25:28;17.50;;;2.37;;
14849;SDS011;7517;48.400;11.770;2024-01-06T00:27:55;13.40;;;2.40;;
14849;SDS011;7517;48.400;11.770;2024-01-06T00:30:23;44.87;;;4.10;;
14849;SDS011;7517;48.400;11.770;2024-01-06T00:32:50;7.43;;;1.80;;
14849;SDS011;7517;48.400;11.770;2024-01-06T00:35:18;1.57;;;1.47;;
14849;SDS011;7517;48.400;11.770;2024-01-06T00:37:46;2.00;;;1.90;;
14849;SDS011;7517;48.400;11.770;2024-01-06T00:40:13;2.80;;;2.23;;
14849;SDS011;7517;48.400;11.770;2024-01-06T00:42:40;15.73;;;3.67;;
14849;SDS011;7517;48.400;11.770;2024-01-06T00:45:08;16.60;;;2.93;;
14849;SDS011;7517;48.400;11.770;2024-01-06T00:47:35;5.93;;;2.43;;
14849;SDS011;7517;48.400;11.770;2024-01-06T00:50:03;21.67;;;3.80;;
14849;SDS011;7517;48.400;11.770;2024-01-06T00:52:33;2.90;;;2.70;;
14849;SDS011;7517;48.400;11.770;2024-01-06T00:55:00;2.70;;;2.50;;
14849;SDS011;7517;48.400;11.770;2024-01-06T00:57:27;2.90;;;2.60;;
14849;SDS011;7517;48.400;11.770;2024-01-06T00:59:54;2.93;;;2.50;;
14849;SDS011;7517;48.400;11.770;2024-01-06T01:02:21;13.20;;;3.00;;
14849;SDS011;7517;48.400;11.770;2024-01-06T01:04:49;2.47;;;2.30;;
14849;SDS011;7517;48.400;11.770;2024-01-06T01:07:17;3.00;;;2.70;;
14849;SDS011;7517;48.400;11.770;2024-01-06T01:09:46;3.00;;;2.73;;
14849;SDS011;7517;48.400;11.770;2024-01-06T01:12:13;3.57;;;3.23;;
14849;SDS011;7517;48.400;11.770;2024-01-06T01:14:40;3.27;;;2.97;;
14849;SDS011;7517;48.400;11.770;2024-01-06T01:17:07;2.83;;;2.63;;
14849;SDS011;7517;48.400;11.770;2024-01-06T01:19:34;3.70;;;3.03;;
14849;SDS011;7517;48.400;11.770;2024-01-06T01:22:02;20.73;;;3.60;;
14849;SDS011;7517;48.400;11.770;2024-01-06T01:24:29;7.23;;;3.27;;
14849;SDS011;7517;48.400;11.770;2024-01-06T01:26:58;3.53;;;3.23;;
14849;SDS011;7517;48.400;11.770;2024-01-06T01:29:25;13.00;;;4.00;;
14849;SDS011;7517;48.400;11.770;2024-01-06T01:31:52;4.10;;;3.20;;
14849;SDS011;7517;48.400;11.770;2024-01-06T01:34:19;11.73;;;3.73;;
14849;SDS011;7517;48.400;11.770;2024-01-06T01:36:46;4.00;;;3.70;;
14849;SDS011;7517;48.400;11.770;2024-01-06T01:39:14;4.23;;;3.83;;
14849;SDS011;7517;48.400;11.770;2024-01-06T01:41:41;4.30;;;3.93;;
14849;SDS011;7517;48.400;11.770;2024-01-06T01:44:10;4.33;;;3.97;;
14849;SDS011;7517;48.400;11.770;2024-01-06T01:46:38;8.50;;;4.27;;
14849;SDS011;7517;48.400;11.770;2024-01-06T01:49:06;4.30;;;3.90;;
14849;SDS011;7517;48.400;11.770;2024-01-06T01:51:34;4.27;;;3.87;;
14849;SDS011;7517;48.400;11.770;2024-01-06T01:54:01;22.40;;;5.20;;
14849;SDS011;7517;48.400;11.770;2024-01-06T01:56:31;8.30;;;4.20;;
14849;SDS011;7517;48.400;11.770;2024-01-06T01:59:00;23.63;;;4.70;;
14849;SDS011;7517;48.400;11.770;2024-01-06T02:01:33;33.73;;;5.60;;
14849;SDS011;7517;48.400;11.770;2024-01-06T02:04:00;4.90;;;3.83;;
14849;SDS011;7517;48.400;11.770;2024-01-06T02:06:28;6.83;;;4.27;;
14849;SDS011;7517;48.400;11.770;2024-01-06T02:08:55;14.87;;;4.27;;
14849;SDS011;7517;48.400;11.770;2024-01-06T02:11:22;15.93;;;4.90;;
14849;SDS011;7517;48.400;11.770;2024-01-06T02:13:50;5.53;;;5.03;;
14849;SDS011;7517;48.400;11.770;2024-01-06T02:16:17;5.30;;;4.53;;
14849;SDS011;7517;48.400;11.770;2024-01-06T02:18:46;5.33;;;4.83;;
14849;SDS011;7517;48.400;11.770;2024-01-06T02:21:14;8.17;;;4.70;;
14849;SDS011;7517;48.400;11.770;2024-01-06T02:23:43;9.77;;;4.97;;
14849;SDS011;7517;48.400;11.770;2024-01-06T02:26:10;6.03;;;4.90;;
14849;SDS011;7517;48.400;11.770;2024-01-06T02:28:38;7.07;;;4.50;;
14849;SDS011;7517;48.400;11.770;2024-01-06T02:31:05;4.47;;;4.10;;
14849;SDS011;7517;48.400;11.770;2024-01-06T02:33:32;5.07;;;3.87;;
14849;SDS011;7517;48.400;11.770;2024-01-06T02:35:59;4.67;;;4.23;;
14849;SDS011;7517;48.400;11.770;2024-01-06T02:38:26;4.67;;;4.27;;
14849;SDS011;7517;48.400;11.770;2024-01-06T02:40:55;5.47;;;3.80;;
14849;SDS011;7517;48.400;11.770;2024-01-06T02:43:22;16.53;;;4.47;;
14849;SDS011;7517;48.400;11.770;2024-01-06T02:45:49;4.80;;;4.23;;
14849;SDS011;7517;48.400;11.770;2024-01-06T02:48:16;4.87;;;4.30;;
14849;SDS011;7517;48.400;11.770;2024-01-06T02:50:43;7.60;;;4.63;;
14849;SDS011;7517;48.400;11.770;2024-01-06T02:53:11;6.63;;;3.90;;
14849;SDS011;7517;48.400;11.770;2024-01-06T02:55:38;12.77;;;4.93;;
14849;SDS011;7517;48.400;11.770;2024-01-06T02:58:07;29.10;;;4.97;;
14849;SDS011;7517;48.400;11.770;2024-01-06T03:00:34;10.53;;;4.17;;
14849;SDS011;7517;48.400;11.770;2024-01-06T03:03:01;12.20;;;4.50;;
14849;SDS011;7517;48.400;11.770;2024-01-06T03:05:29;13.87;;;4.67;;
14849;SDS011;7517;48.400;11.770;2024-01-06T03:07:56;3.40;;;3.20;;
14849;SDS011;7517;48.400;11.770;2024-01-06T03:10:23;19.93;;;3.67;;
14849;SDS011;7517;48.400;11.770;2024-01-06T03:12:50;18.90;;;4.33;;
14849;SDS011;7517;48.400;11.770;2024-01-06T03:15:19;3.80;;;3.50;;
14849;SDS011;7517;48.400;11.770;2024-01-06T03:17:46;3.53;;;3.23;;
14849;SDS011;7517;48.400;11.770;2024-01-06T03:20:13;4.27;;;3.10;;
14849;SDS011;7517;48.400;11.770;2024-01-06T03:22:40;12.03;;;3.40;;
14849;SDS011;7517;48.400;11.770;2024-01-06T03:25:08;2.90;;;2.70;;
14849;SDS011;7517;48.400;11.770;2024-01-06T03:27:35;6.77;;;2.70;;
14849;SDS011;7517;48.400;11.770;2024-01-06T03:30:02;2.50;;;2.30;;
14849;SDS011;7517;48.400;11.770;2024-01-06T03:32:32;9.27;;;2.37;;
14849;SDS011;7517;48.400;11.770;2024-01-06T03:34:59;14.43;;;2.43;;
14849;SDS011;7517;48.400;11.770;2024-01-06T03:37:27;4.80;;;1.77;;
14849;SDS011;7517;48.400;11.770;2024-01-06T03:39:54;1.70;;;1.60;;
14849;SDS011;7517;48.400;11.770;2024-01-06T03:42:21;1.67;;;1.47;;
14849;SDS011;7517;48.400;11.770;2024-01-06T03:44:48;1.40;;;1.30;;
14849;SDS011;7517;48.400;11.770;2024-01-06T03:47:17;12.37;;;2.10;;
14849;SDS011;7517;48.400;11.770;2024-01-06T03:49:46;8.40;;;1.60;;
14849;SDS011;7517;48.400;11.770;2024-01-06T03:52:13;8.33;;;1.73;;
14849;SDS011;7517;48.400;11.770;2024-01-06T03:54:40;1.13;;;1.03;;
14849;SDS011;7517;48.400;11.770;2024-01-06T03:57:07;1.70;;;1.07;;
14849;SDS011;7517;48.400;11.770;2024-01-06T03:59:34;1.40;;;1.30;;
14849;SDS011;7517;48.400;11.770;2024-01-06T04:02:01;8.47;;;1.30;;
14849;SDS011;7517;48.400;11.770;2024-01-06T04:04:29;6.10;;;1.30;;
14849;SDS011;7517;48.400;11.770;2024-01-06T04:06:57;8.17;;;1.33;;
14849;SDS011;7517;48.400;11.770;2024-01-06T04:09:26;0.90;;;0.90;;
14849;SDS011;7517;48.400;11.770;2024-01-06T04:11:53;0.93;;;0.90;;
14849;SDS011;7517;48.400;11.770;2024-01-06T04:14:20;0.80;;;0.80;;
14849;SDS011;7517;48.400;11.770;2024-01-06T04:16:47;0.90;;;0.90;;
14849;SDS011;7517;48.400;11.770;2024-01-06T04:19:15;10.53;;;1.50;;
14849;SDS011;7517;48.400;11.770;2024-01-06T04:21:42;1.83;;;0.93;;
14849;SDS011;7517;48.400;11.770;2024-01-06T04:24:10;3.73;;;0.90;;
14849;SDS011;7517;48.400;11.770;2024-01-06T04:26:37;0.77;;;0.77;;
14849;SDS011;7517;48.400;11.770;2024-01-06T04:29:04;1.10;;;1.00;;
14849;SDS011;7517;48.400;11.770;2024-01-06T04:31:31;1.00;;;0.80;;
14849;SDS011;7517;48.400;11.770;2024-01-06T04:33:58;1.20;;;1.10;;
14849;SDS011;7517;48.400;11.770;2024-01-06T04:36:25;0.90;;;0.80;;
14849;SDS011;7517;48.400;11.770;2024-01-06T04:38:53;0.77;;;0.77;;
14849;SDS011;7517;48.400;11.770;2024-01-06T04:41:21;15.17;;;1.27;;
14849;SDS011;7517;48.400;11.770;2024-01-06T04:43:48;0.73;;;0.73;;
14849;SDS011;7517;48.400;11.770;2024-01-06T04:46:16;0.63;;;0.63;;
14849;SDS011;7517;48.400;11.770;2024-01-06T04:48:43;0.70;;;0.70;;
14849;SDS011;7517;48.400;11.770;2024-01-06T04:51:10;0.53;;;0.53;;
14849;SDS011;7517;48.400;11.770;2024-01-06T04:53:37;0.70;;;0.70;;
14849;SDS011;7517;48.400;11.770;2024-01-06T04:56:05;0.73;;;0.73;;
14849;SDS011;7517;48.400;11.770;2024-01-06T04:58:33;1.07;;;1.00;;
14849;SDS011;7517;48.400;11.770;2024-01-06T05:01:00;4.10;;;1.30;;
14849;SDS011;7517;48.400;11.770;2024-01-06T05:03:28;9.50;;;1.47;;
14849;SDS011;7517;48.400;11.770;2024-01-06T05:05:55;5.27;;;1.37;;
14849;SDS011;7517;48.400;11.770;2024-01-06T05:08:22;1.43;;;1.33;;
14849;SDS011;7517;48.400;11.770;2024-01-06T05:10:51;4.83;;;2.10;;
14849;SDS011;7517;48.400;11.770;2024-01-06T05:13:19;5.70;;;2.10;;
14849;SDS011;7517;48.400;11.770;2024-01-06T05:15:47;4.23;;;2.33;;
14849;SDS011;7517;48.400;11.770;2024-01-06T05:18:14;7.77;;;2.30;;
14849;SDS011;7517;48.400;11.770;2024-01-06T05:20:42;3.30;;;2.30;;
14849;SDS011;7517;48.400;11.770;2024-01-06T05:23:09;2.37;;;2.17;;
14849;SDS011;7517;48.400;11.770;2024-01-06T05:25:36;3.97;;;2.30;;
14849;SDS011;7517;48.400;11.770;2024-01-06T05:28:03;2.87;;;2.20;;
14849;SDS011;7517;48.400;11.770;2024-01-06T05:30:31;2.93;;;2.20;;
14849;SDS011;7517;48.400;11.770;2024-01-06T05:33:00;2.40;;;2.30;;
14849;SDS011;7517;48.400;11.770;2024-01-06T05:35:28;2.50;;;2.30;;
14849;SDS011;7517;48.400;11.770;2024-01-06T05:37:55;2.60;;;2.40;;
14849;SDS011;7517;48.400;11.770;2024-01-06T05:40:22;3.03;;;2.50;;
14849;SDS011;7517;48.400;11.770;2024-01-06T05:42:50;3.47;;;2.60;;
14849;SDS011;7517;48.400;11.770;2024-01-06T05:45:20;2.53;;;2.20;;
14849;SDS011;7517;48.400;11.770;2024-01-06T05:47:47;2.47;;;2.27;;
14849;SDS011;7517;48.400;11.770;2024-01-06T05:50:16;3.77;;;2.80;;
14849;SDS011;7517;48.400;11.770;2024-01-06T05:52:43;3.87;;;2.30;;
14849;SDS011;7517;48.400;11.770;2024-01-06T05:55:12;3.87;;;2.13;;
14849;SDS011;7517;48.400;11.770;2024-01-06T05:57:39;2.10;;;2.00;;
14849;SDS011;7517;48.400;11.770;2024-01-06T06:00:08;2.57;;;1.80;;
14849;SDS011;7517;48.400;11.770;2024-01-06T06:02:37;3.17;;;1.60;;
14849;SDS011;7517;48.400;11.770;2024-01-06T06:05:04;1.93;;;1.83;;
14849;SDS011;7517;48.400;11.770;2024-01-06T06:07:32;3.30;;;1.80;;
14849;SDS011;7517;48.400;11.770;2024-01-06T06:10:04;2.93;;;1.60;;
14849;SDS011;7517;48.400;11.770;2024-01-06T06:12:34;1.80;;;1.70;;
14849;SDS011;7517;48.400;11.770;2024-01-06T06:15:01;4.80;;;1.90;;
14849;SDS011;7517;48.400;11.770;2024-01-06T06:17:29;7.63;;;1.63;;
14849;SDS011;7517;48.400;11.770;2024-01-06T06:19:56;1.70;;;1.60;;
14849;SDS011;7517;48.400;11.770;2024-01-06T06:22:23;3.77;;;1.57;;
14849;SDS011;7517;48.400;11.770;2024-01-06T06:24:53;2.03;;;1.60;;
14849;SDS011;7517;48.400;11.770;2024-01-06T06:27:20;10.10;;;2.40;;
14849;SDS011;7517;48.400;11.770;2024-01-06T06:29:47;2.80;;;1.50;;
14849;SDS011;7517;48.400;11.770;2024-01-06T06:32:14;2.50;;;1.90;;
14849;SDS011;7517;48.400;11.770;2024-01-06T06:34:41;3.60;;;1.80;;
14849;SDS011;7517;48.400;11.770;2024-01-06T06:37:09;2.37;;;1.50;;
14849;SDS011;7517;48.400;11.770;2024-01-06T06:39:36;2.27;;;1.47;;
14849;SDS011;7517;48.400;11.770;2024-01-06T06:42:05;10.50;;;1.63;;
14849;SDS011;7517;48.400;11.770;2024-01-06T06:44:32;1.40;;;1.30;;
14849;SDS011;7517;48.400;11.770;2024-01-06T06:46:59;6.03;;;1.30;;
14849;SDS011;7517;48.400;11.770;2024-01-06T06:49:26;3.73;;;1.70;;
14849;SDS011;7517;48.400;11.770;2024-01-06T06:51:53;9.60;;;2.00;;
14849;SDS011;7517;48.400;11.770;2024-01-06T06:54:21;9.93;;;2.23;;
14849;SDS011;7517;48.400;11.770;2024-01-06T06:56:48;1.83;;;1.57;;
14849;SDS011;7517;48.400;11.770;2024-01-06T06:59:17;13.53;;;1.90;;
14849;SDS011;7517;48.400;11.770;2024-01-06T07:01:44;3.70;;;1.60;;
14849;SDS011;7517;48.400;11.770;2024-01-06T07:04:11;2.03;;;1.50;;
14849;SDS011;7517;48.400;11.770;2024-01-06T07:06:38;1.53;;;1.43;;
14849;SDS011;7517;48.400;11.770;2024-01-06T07:09:05;3.97;;;1.50;;
14849;SDS011;7517;48.400;11.770;2024-01-06T07:11:32;2.37;;;1.60;;
14849;SDS011;7517;48.400;11.770;2024-01-06T07:13:59;3.90;;;1.57;;
14849;SDS011;7517;48.400;11.770;2024-01-06T07:16:28;20.27;;;3.23;;
14849;SDS011;7517;48.400;11.770;2024-01-06T07:18:55;1.13;;;1.00;;
14849;SDS011;7517;48.400;11.770;2024-01-06T07:21:22;2.37;;;1.60;;
14849;SDS011;7517;48.400;11.770;2024-01-06T07:23:49;11.97;;;1.77;;
14849;SDS011;7517;48.400;11.770;2024-01-06T07:26:16;1.63;;;1.27;;
14849;SDS011;7517;48.400;11.770;2024-01-06T07:28:43;4.87;;;1.60;;
14849;SDS011;7517;48.400;11.770;2024-01-06T07:31:09;3.93;;;1.43;;
14849;SDS011;7517;48.400;11.770;2024-01-06T07:33:38;1.30;;;1.20;;
14849;SDS011;7517;48.400;11.770;2024-01-06T07:36:05;2.63;;;1.50;;
14849;SDS011;7517;48.400;11.770;2024-01-06T07:38:33;1.93;;;1.63;;
14849;SDS011;7517;48.400;11.770;2024-01-06T07:41:00;8.20;;;2.27;;
14849;SDS011;7517;48.400;11.770;2024-01-06T07:43:29;4.67;;;2.00;;
14849;SDS011;7517;48.400;11.770;2024-01-06T07:45:56;7.87;;;2.27;;
14849;SDS011;7517;48.400;11.770;2024-01-06T07:48:23;14.40;;;2.80;;
14849;SDS011;7517;48.400;11.770;2024-01-06T07:50:51;2.20;;;1.50;;
14849;SDS011;7517;48.400;11.770;2024-01-06T07:53:18;2.73;;;1.87;;
14849;SDS011;7517;48.400;11.770;2024-01-06T07:55:46;9.70;;;2.07;;
14849;SDS011;7517;48.400;11.770;2024-01-06T07:58:13;2.00;;;1.70;;
14849;SDS011;7517;48.400;11.770;2024-01-06T08:00:41;2.03;;;1.40;;
14849;SDS011;7517;48.400;11.770;2024-01-06T08:03:08;2.07;;;1.70;;
14849;SDS011;7517;48.400;11.770;2024-01-06T08:05:36;3.37;;;2.00;;
14849;SDS011;7517;48.400;11.770;2024-01-06T08:08:05;1.63;;;1.37;;
14849;SDS011;7517;48.400;11.770;2024-01-06T08:10:32;2.00;;;1.67;;
14849;SDS011;7517;48.400;11.770;2024-01-06T08:12:59;3.00;;;2.20;;
14849;SDS011;7517;48.400;11.770;2024-01-06T08:15:27;2.13;;;1.73;;
14849;SDS011;7517;48.400;11.770;2024-01-06T08:17:54;3.00;;;2.23;;
14849;SDS011;7517;48.400;11.770;2024-01-06T08:20:21;4.20;;;2.40;;
14849;SDS011;7517;48.400;11.770;2024-01-06T08:22:48;11.07;;;2.90;;
14849;SDS011;7517;48.400;11.770;2024-01-06T08:25:17;6.10;;;2.87;;
14849;SDS011;7517;48.400;11.770;2024-01-06T08:27:44;23.30;;;3.10;;
14849;SDS011;7517;48.400;11.770;2024-01-06T08:30:11;5.27;;;2.17;;
14849;SDS011;7517;48.400;11.770;2024-01-06T08:32:38;3.07;;;2.30;;
14849;SDS011;7517;48.400;11.770;2024-01-06T08:35:06;22.53;;;3.60;;
14849;SDS011;7517;48.400;11.770;2024-01-06T08:37:34;9.60;;;2.97;;
14849;SDS011;7517;48.400;11.770;2024-01-06T08:40:01;2.27;;;2.00;;
14849;SDS011;7517;48.400;11.770;2024-01-06T08:42:31;3.83;;;2.37;;
14849;SDS011;7517;48.400;11.770;2024-01-06T08:44:58;9.93;;;3.10;;
14849;SDS011;7517;48.400;11.770;2024-01-06T08:47:25;9.33;;;3.37;;
14849;SDS011;7517;48.400;11.770;2024-01-06T08:49:52;7.07;;;3.80;;
14849;SDS011;7517;48.400;11.770;2024-01-06T08:52:19;3.97;;;3.10;;
14849;SDS011;7517;48.400;11.770;2024-01-06T08:54:46;6.07;;;2.40;;
14849;SDS011;7517;48.400;11.770;2024-01-06T08:57:15;5.67;;;2.30;;
14849;SDS011;7517;48.400;11.770;2024-01-06T08:59:43;20.73;;;3.00;;
14849;SDS011;7517;48.400;11.770;2024-01-06T09:02:11;18.40;;;2.93;;
14849;SDS011;7517;48.400;11.770;2024-01-06T09:04:38;2.83;;;2.37;;
14849;SDS011;7517;48.400;11.770;2024-01-06T09:07:05;10.60;;;2.50;;
14849;SDS011;7517;48.400;11.770;2024-01-06T09:09:32;9.73;;;2.57;;
14849;SDS011;7517;48.400;11.770;2024-01-06T09:11:59;5.67;;;2.17;;
14849;SDS011;7517;48.400;11.770;2024-01-06T09:14:27;3.50;;;1.90;;
14849;SDS011;7517;48.400;11.770;2024-01-06T09:16:56;12.00;;;2.20;;
14849;SDS011;7517;48.400;11.770;2024-01-06T09:19:23;7.97;;;2.60;;
14849;SDS011;7517;48.400;11.770;2024-01-06T09:21:53;7.23;;;2.60;;
14849;SDS011;7517;48.400;11.770;2024-01-06T09:24:20;33.10;;;4.00;;
14849;SDS011;7517;48.400;11.770;2024-01-06T09:26:47;8.07;;;2.60;;
14849;SDS011;7517;48.400;11.770;2024-01-06T09:29:15;3.47;;;2.10;;
14849;SDS011;7517;48.400;11.770;2024-01-06T09:31:42;17.77;;;2.70;;
14849;SDS011;7517;48.400;11.770;2024-01-06T09:34:11;1.90;;;1.60;;
14849;SDS011;7517;48.400;11.770;2024-01-06T09:36:39;2.83;;;1.83;;
14849;SDS011;7517;48.400;11.770;2024-01-06T09:39:06;2.20;;;1.70;;
14849;SDS011;7517;48.400;11.770;2024-01-06T09:41:33;16.77;;;2.80;;
14849;SDS011;7517;48.400;11.770;2024-01-06T09:44:00;31.50;;;3.97;;
14849;SDS011;7517;48.400;11.770;2024-01-06T09:46:28;12.50;;;2.60;;
14849;SDS011;7517;48.400;11.770;2024-01-06T09:48:56;2.20;;;2.00;;
14849;SDS011;7517;48.400;11.770;2024-01-06T09:51:26;3.33;;;1.77;;
14849;SDS011;7517;48.400;11.770;2024-01-06T09:53:56;4.77;;;2.00;;
14849;SDS011;7517;48.400;11.770;2024-01-06T09:56:26;2.33;;;1.53;;
14849;SDS011;7517;48.400;11.770;2024-01-06T09:58:56;9.60;;;2.73;;
14849;SDS011;7517;48.400;11.770;2024-01-06T10:01:23;6.57;;;2.27;;
14849;SDS011;7517;48.400;11.770;2024-01-06T10:03:50;4.67;;;2.10;;
14849;SDS011;7517;48.400;11.770;2024-01-06T10:06:18;27.73;;;4.40;;
14849;SDS011;7517;48.400;11.770;2024-01-06T10:08:49;6.53;;;1.90;;
14849;SDS011;7517;48.400;11.770;2024-01-06T10:11:18;6.33;;;1.83;;
14849;SDS011;7517;48.400;11.770;2024-01-06T10:13:48;7.33;;;2.30;;
14849;SDS011;7517;48.400;11.770;2024-01-06T10:16:16;5.53;;;1.90;;
14849;SDS011;7517;48.400;11.770;2024-01-06T10:18:44;5.77;;;2.90;;
14849;SDS011;7517;48.400;11.770;2024-01-06T10:21:12;14.97;;;4.27;;
14849;SDS011;7517;48.400;11.770;2024-01-06T10:23:42;5.00;;;2.97;;
14849;SDS011;7517;48.400;11.770;2024-01-06T10:26:13;2.80;;;2.03;;
14849;SDS011;7517;48.400;11.770;2024-01-06T10:28:40;6.90;;;3.70;;
14849;SDS011;7517;48.400;11.770;2024-01-06T10:31:08;3.23;;;2.27;;
14849;SDS011;7517;48.400;11.770;2024-01-06T10:33:35;2.47;;;1.90;;
14849;SDS011;7517;48.400;11.770;2024-01-06T10:36:02;3.47;;;2.90;;
14849;SDS011;7517;48.400;11.770;2024-01-06T10:38:31;4.33;;;2.20;;
14849;SDS011;7517;48.400;11.770;2024-01-06T10:41:01;6.07;;;2.60;;
14849;SDS011;7517;48.400;11.770;2024-01-06T10:43:33;4.43;;;3.30;;
14849;SDS011;7517;48.400;11.770;2024-01-06T10:46:05;7.00;;;3.20;;
14849;SDS011;7517;48.400;11.770;2024-01-06T10:48:35;9.20;;;5.27;;
14849;SDS011;7517;48.400;11.770;2024-01-06T10:51:07;5.53;;;4.00;;
14849;SDS011;7517;48.400;11.770;2024-01-06T10:53:35;15.23;;;3.30;;
14849;SDS011;7517;48.400;11.770;2024-01-06T10:56:04;5.67;;;3.03;;
14849;SDS011;7517;48.400;11.770;2024-01-06T10:58:34;5.63;;;3.10;;
14849;SDS011;7517;48.400;11.770;2024-01-06T11:01:07;2.63;;;2.10;;
14849;SDS011;7517;48.400;11.770;2024-01-06T11:03:35;8.43;;;3.70;;
14849;SDS011;7517;48.400;11.770;2024-01-06T11:06:03;3.17;;;2.53;;
14849;SDS011;7517;48.400;11.770;2024-01-06T11:08:32;3.27;;;2.73;;
14849;SDS011;7517;48.400;11.770;2024-01-06T11:11:08;18.47;;;3.40;;
14849;SDS011;7517;48.400;11.770;2024-01-06T11:13:37;6.23;;;2.37;;
14849;SDS011;7517;48.400;11.770;2024-01-06T11:16:04;4.63;;;2.23;;
14849;SDS011;7517;48.400;11.770;2024-01-06T11:18:33;8.00;;;2.37;;
14849;SDS011;7517;48.400;11.770;2024-01-06T11:21:18;3.00;;;2.17;;
14849;SDS011;7517;48.400;11.770;2024-01-06T11:26:52;3.03;;;2.50;;
14849;SDS011;7517;48.400;11.770;2024-01-06T11:29:24;3.33;;;2.50;;
14849;SDS011;7517;48.400;11.770;2024-01-06T11:34:49;3.63;;;2.00;;
14849;SDS011;7517;48.400;11.770;2024-01-06T11:37:34;3.03;;;2.33;;
14849;SDS011;7517;48.400;11.770;2024-01-06T11:40:04;4.17;;;2.40;;
14849;SDS011;7517;48.400;11.770;2024-01-06T11:42:35;2.93;;;2.00;;
14849;SDS011;7517;48.400;11.770;2024-01-06T11:45:04;3.87;;;2.57;;
14849;SDS011;7517;48.400;11.770;2024-01-06T11:47:33;5.03;;;2.57;;
14849;SDS011;7517;48.400;11.770;2024-01-06T11:50:01;2.80;;;2.17;;
14849;SDS011;7517;48.400;11.770;2024-01-06T11:52:30;3.47;;;2.50;;
14849;SDS011;7517;48.400;11.770;2024-01-06T11:54:57;4.80;;;2.30;;
14849;SDS011;7517;48.400;11.770;2024-01-06T11:57:29;8.07;;;2.60;;
14849;SDS011;7517;48.400;11.770;2024-01-06T11:59:56;16.53;;;2.83;;
14849;SDS011;7517;48.400;11.770;2024-01-06T12:02:27;9.57;;;2.20;;
14849;SDS011;7517;48.400;11.770;2024-01-06T12:04:54;2.67;;;2.00;;
14849;SDS011;7517;48.400;11.770;2024-01-06T12:07:21;10.70;;;2.90;;
14849;SDS011;7517;48.400;11.770;2024-01-06T12:09:48;3.33;;;2.03;;
14849;SDS011;7517;48.400;11.770;2024-01-06T12:12:18;4.77;;;2.27;;
14849;SDS011;7517;48.400;11.770;2024-01-06T12:14:45;5.77;;;2.97;;
14849;SDS011;7517;48.400;11.770;2024-01-06T12:17:13;3.00;;;2.63;;
14849;SDS011;7517;48.400;11.770;2024-01-06T12:19:42;10.30;;;2.63;;
14849;SDS011;7517;48.400;11.770;2024-01-06T12:22:11;9.57;;;2.70;;
14849;SDS011;7517;48.400;11.770;2024-01-06T12:24:41;2.90;;;1.90;;
14849;SDS011;7517;48.400;11.770;2024-01-06T12:27:09;4.03;;;2.10;;
14849;SDS011;7517;48.400;11.770;2024-01-06T12:29:37;4.43;;;2.00;;
14849;SDS011;7517;48.400;11.770;2024-01-06T12:32:06;3.20;;;2.13;;
14849;SDS011;7517;48.400;11.770;2024-01-06T12:34:34;6.20;;;2.50;;
14849;SDS011;7517;48.400;11.770;2024-01-06T12:37:02;5.60;;;2.03;;
14849;SDS011;7517;48.400;11.770;2024-01-06T12:39:30;5.07;;;2.17;;
14849;SDS011;7517;48.400;11.770;2024-01-06T12:42:00;6.00;;;2.10;;
14849;SDS011;7517;48.400;11.770;2024-01-06T12:44:31;5.63;;;2.40;;
14849;SDS011;7517;48.400;11.770;2024-01-06T12:47:02;2.23;;;1.90;;
14849;SDS011;7517;48.400;11.770;2024-01-06T12:49:29;3.03;;;2.00;;
14849;SDS011;7517;48.400;11.770;2024-01-06T12:51:56;4.93;;;2.30;;
14849;SDS011;7517;48.400;11.770;2024-01-06T12:54:25;2.13;;;1.80;;
14849;SDS011;7517;48.400;11.770;2024-01-06T12:56:52;2.40;;;2.20;;
14849;SDS011;7517;48.400;11.770;2024-01-06T12:59:19;3.67;;;2.57;;
14849;SDS011;7517;48.400;11.770;2024-01-06T13:01:46;3.73;;;2.30;;
14849;SDS011;7517;48.400;11.770;2024-01-06T13:04:14;4.47;;;2.10;;
14849;SDS011;7517;48.400;11.770;2024-01-06T13:06:42;2.97;;;2.00;;
14849;SDS011;7517;48.400;11.770;2024-01-06T13:09:09;2.93;;;2.30;;
14849;SDS011;7517;48.400;11.770;2024-01-06T13:11:42;3.93;;;1.80;;
14849;SDS011;7517;48.400;11.770;2024-01-06T13:14:11;3.83;;;2.30;;
14849;SDS011;7517;48.400;11.770;2024-01-06T13:16:38;2.43;;;1.87;;
14849;SDS011;7517;48.400;11.770;2024-01-06T13:19:06;2.53;;;2.00;;
14849;SDS011;7517;48.400;11.770;2024-01-06T13:21:33;2.60;;;2.40;;
14849;SDS011;7517;48.400;11.770;2024-01-06T13:24:00;3.13;;;2.10;;
14849;SDS011;7517;48.400;11.770;2024-01-06T13:26:29;3.67;;;2.20;;
14849;SDS011;7517;48.400;11.770;2024-01-06T13:28:58;3.10;;;2.13;;
14849;SDS011;7517;48.400;11.770;2024-01-06T13:31:26;4.13;;;2.40;;
14849;SDS011;7517;48.400;11.770;2024-01-06T13:33:54;5.83;;;2.23;;
14849;SDS011;7517;48.400;11.770;2024-01-06T13:36:21;14.57;;;2.57;;
14849;SDS011;7517;48.400;11.770;2024-01-06T13:38:48;4.03;;;2.50;;
14849;SDS011;7517;48.400;11.770;2024-01-06T13:41:17;2.57;;;2.23;;
14849;SDS011;7517;48.400;11.770;2024-01-06T13:43:44;11.57;;;2.90;;
14849;SDS011;7517;48.400;11.770;2024-01-06T13:46:13;2.67;;;2.10;;
14849;SDS011;7517;48.400;11.770;2024-01-06T13:48:40;2.37;;;2.17;;
14849;SDS011;7517;48.400;11.770;2024-01-06T13:51:10;8.80;;;2.70;;
14849;SDS011;7517;48.400;11.770;2024-01-06T13:53:36;3.03;;;2.53;;
14849;SDS011;7517;48.400;11.770;2024-01-06T13:56:04;2.60;;;2.40;;
14849;SDS011;7517;48.400;11.770;2024-01-06T13:58:32;10.77;;;2.63;;
14849;SDS011;7517;48.400;11.770;2024-01-06T14:01:00;2.70;;;2.50;;
14849;SDS011;7517;48.400;11.770;2024-01-06T14:03:32;14.03;;;2.70;;
14849;SDS011;7517;48.400;11.770;2024-01-06T14:06:00;5.70;;;2.30;;
14849;SDS011;7517;48.400;11.770;2024-01-06T14:08:27;6.40;;;2.80;;
14849;SDS011;7517;48.400;11.770;2024-01-06T14:10:54;2.70;;;2.20;;
14849;SDS011;7517;48.400;11.770;2024-01-06T14:13:22;3.40;;;2.67;;
14849;SDS011;7517;48.400;11.770;2024-01-06T14:15:51;2.47;;;2.27;;
14849;SDS011;7517;48.400;11.770;2024-01-06T14:18:18;3.47;;;2.60;;
14849;SDS011;7517;48.400;11.770;2024-01-06T14:20:47;3.40;;;2.77;;
14849;SDS011;7517;48.400;11.770;2024-01-06T14:23:14;13.47;;;3.37;;
14849;SDS011;7517;48.400;11.770;2024-01-06T14:25:41;17.67;;;3.73;;
14849;SDS011;7517;48.400;11.770;2024-01-06T14:28:08;13.57;;;3.40;;
14849;SDS011;7517;48.400;11.770;2024-01-06T14:30:36;47.97;;;5.60;;
14849;SDS011;7517;48.400;11.770;2024-01-06T14:33:04;3.20;;;2.90;;
14849;SDS011;7517;48.400;11.770;2024-01-06T14:35:31;2.90;;;2.43;;
14849;SDS011;7517;48.400;11.770;2024-01-06T14:37:59;6.47;;;2.93;;
14849;SDS011;7517;48.400;11.770;2024-01-06T14:40:30;14.87;;;3.23;;
14849;SDS011;7517;48.400;11.770;2024-01-06T14:42:58;27.83;;;5.37;;
14849;SDS011;7517;48.400;11.770;2024-01-06T14:45:27;3.93;;;3.50;;
14849;SDS011;7517;48.400;11.770;2024-01-06T14:47:54;6.23;;;4.20;;
14849;SDS011;7517;48.400;11.770;2024-01-06T14:50:21;5.90;;;5.27;;
14849;SDS011;7517;48.400;11.770;2024-01-06T14:52:48;4.67;;;3.70;;
14849;SDS011;7517;48.400;11.770;2024-01-06T14:55:17;6.70;;;3.80;;